createdAt,value
2023-01-26T00:01:31.145Z,80.80
2023-01-26T00:03:58.142Z,83.47
2023-01-26T00:06:25.698Z,87.18
2023-01-26T00:08:57.115Z,84.43
2023-01-26T00:11:27.083Z,80.50
2023-01-26T00:13:56.583Z,82.07
2023-01-26T00:16:24.433Z,80.03
2023-01-26T00:18:51.332Z,78.35
2023-01-26T00:21:23.565Z,87.80
2023-01-26T00:23:51.731Z,83.07
2023-01-26T00:26:22.944Z,81.40
2023-01-26T00:28:50.828Z,82.82
2023-01-26T00:31:24.011Z,84.60
2023-01-26T00:33:51.866Z,83.65
2023-01-26T00:36:18.943Z,80.57
2023-01-26T00:38:46.139Z,84.03
2023-01-26T00:41:31.389Z,80.47
2023-01-26T00:43:58.152Z,84.97
2023-01-26T00:46:25.009Z,83.75
2023-01-26T00:48:51.856Z,93.78
2023-01-26T00:51:18.684Z,91.78
2023-01-26T00:53:45.435Z,89.15
2023-01-26T00:56:14.638Z,90.70
2023-01-26T00:58:42.182Z,85.80
2023-01-26T01:01:09.008Z,90.45
2023-01-26T01:03:35.860Z,92.05
2023-01-26T01:06:02.651Z,86.70
2023-01-26T01:08:29.448Z,93.70
2023-01-26T01:11:11.330Z,97.28
2023-01-26T01:13:39.078Z,92.13
2023-01-26T01:16:12.474Z,92.55
2023-01-26T01:18:39.688Z,96.25
2023-01-26T01:21:12.915Z,96.75
2023-01-26T01:23:39.971Z,89.70
2023-01-26T01:26:07.390Z,89.18
2023-01-26T01:28:35.442Z,93.40
2023-01-26T01:31:12.064Z,92.78
2023-01-26T01:33:39.217Z,89.03
2023-01-26T01:36:10.478Z,95.38
2023-01-26T01:38:37.298Z,94.68
2023-01-26T01:41:04.451Z,97.93
2023-01-26T01:43:31.303Z,89.97
2023-01-26T01:46:00.898Z,97.70
2023-01-26T01:48:52.213Z,97.45
2023-01-26T01:51:31.352Z,99.35
2023-01-26T01:54:04.600Z,100.30
2023-01-26T01:56:33.558Z,95.32
2023-01-26T01:59:02.805Z,103.72
2023-01-26T02:01:30.238Z,100.30
2023-01-26T02:04:01.263Z,105.65
2023-01-26T02:06:40.979Z,101.30
2023-01-26T02:09:29.255Z,101.25
2023-01-26T02:11:57.764Z,97.78
2023-01-26T02:14:25.538Z,101.20
2023-01-26T02:16:52.306Z,111.28
2023-01-26T02:19:52.535Z,107.18
2023-01-26T02:22:51.722Z,109.10
2023-01-26T02:25:58.131Z,97.93
2023-01-26T02:28:27.150Z,104.65
2023-01-26T02:30:56.163Z,107.15
2023-01-26T02:33:29.350Z,104.80
2023-01-26T02:35:56.178Z,111.68
2023-01-26T02:38:26.109Z,108.43
2023-01-26T02:41:03.359Z,100.05
2023-01-26T02:43:30.274Z,106.07
2023-01-26T02:45:57.090Z,97.47
2023-01-26T02:48:43.413Z,96.15
2023-01-26T02:51:10.627Z,102.15
2023-01-26T02:53:37.383Z,102.93
2023-01-26T02:56:04.325Z,102.93
2023-01-26T02:58:31.091Z,99.40
2023-01-26T03:00:58.001Z,94.22
2023-01-26T03:03:41.692Z,105.70
2023-01-26T03:06:12.898Z,102.80
2023-01-26T03:08:40.033Z,100.70
2023-01-26T03:11:09.042Z,98.93
2023-01-26T03:13:36.158Z,105.22
2023-01-26T03:16:08.226Z,102.45
2023-01-26T03:18:55.004Z,96.90
2023-01-26T03:21:40.203Z,89.07
2023-01-26T03:24:31.907Z,96.70
2023-01-26T03:27:17.794Z,103.80
2023-01-26T03:29:45.413Z,106.57
2023-01-26T03:32:12.521Z,98.45
2023-01-26T03:34:39.284Z,100.55
2023-01-26T03:37:06.447Z,100.18
2023-01-26T03:39:51.686Z,101.45
2023-01-26T03:42:36.778Z,99.65
2023-01-26T03:45:23.119Z,93.65
2023-01-26T03:48:08.273Z,97.10
2023-01-26T03:50:53.655Z,97.72
2023-01-26T03:53:42.314Z,97.55
2023-01-26T03:56:22.176Z,90.03
2023-01-26T03:58:55.446Z,95.38
2023-01-26T04:01:28.894Z,102.28
2023-01-26T04:04:15.618Z,107.65
2023-01-26T04:07:03.724Z,93.82
2023-01-26T04:09:31.840Z,99.32
2023-01-26T04:11:59.145Z,98.88
2023-01-26T04:14:49.824Z,92.30
2023-01-26T04:17:37.355Z,99.05
2023-01-26T04:20:25.050Z,97.63
2023-01-26T04:22:52.623Z,82.18
2023-01-26T04:25:21.816Z,91.03
2023-01-26T04:27:48.624Z,88.25
2023-01-26T04:30:17.305Z,85.68
2023-01-26T04:32:46.050Z,88.13
2023-01-26T04:35:12.959Z,86.28
2023-01-26T04:37:39.877Z,89.40
2023-01-26T04:40:07.974Z,86.63
2023-01-26T04:42:35.489Z,83.38
2023-01-26T04:45:02.256Z,86.22
2023-01-26T04:47:29.564Z,83.90
2023-01-26T04:49:56.450Z,81.30
2023-01-26T04:52:23.311Z,85.13
2023-01-26T04:54:50.812Z,83.05
2023-01-26T04:57:20.513Z,83.20
2023-01-26T04:59:47.315Z,78.68
2023-01-26T05:02:14.092Z,79.70
2023-01-26T05:04:40.886Z,83.93
2023-01-26T05:07:07.666Z,82.65
2023-01-26T05:09:34.439Z,89.55
2023-01-26T05:12:21.218Z,85.43
2023-01-26T05:14:47.992Z,85.20
2023-01-26T05:17:14.746Z,90.63
2023-01-26T05:19:41.561Z,85.13
2023-01-26T05:22:08.506Z,87.20
2023-01-26T05:24:35.447Z,84.80
2023-01-26T05:27:20.641Z,88.20
2023-01-26T05:29:48.496Z,89.18
2023-01-26T05:32:15.363Z,85.30
2023-01-26T05:34:42.148Z,91.13
2023-01-26T05:37:08.952Z,91.60
2023-01-26T05:39:35.752Z,85.00
2023-01-26T05:42:02.538Z,91.00
2023-01-26T05:44:29.709Z,92.28
2023-01-26T05:46:56.563Z,95.03
2023-01-26T05:49:23.348Z,85.30
2023-01-26T05:51:50.129Z,90.35
2023-01-26T05:54:16.908Z,84.63
2023-01-26T05:56:43.733Z,85.78
2023-01-26T05:59:10.597Z,87.90
2023-01-26T06:02:40.101Z,86.47
2023-01-26T06:05:07.929Z,82.43
2023-01-26T06:07:34.889Z,89.20
2023-01-26T06:10:01.705Z,79.80
2023-01-26T06:12:31.550Z,93.00
2023-01-26T06:14:58.749Z,88.18
2023-01-26T06:17:25.596Z,84.55
2023-01-26T06:19:52.372Z,89.75
2023-01-26T06:22:19.813Z,87.80
2023-01-26T06:24:46.958Z,86.45
2023-01-26T06:27:16.658Z,88.40
2023-01-26T06:29:44.499Z,85.85
2023-01-26T06:32:12.817Z,83.18
2023-01-26T06:34:40.403Z,86.70
2023-01-26T06:37:07.635Z,83.40
2023-01-26T06:39:34.451Z,91.22
2023-01-26T06:42:02.181Z,91.63
2023-01-26T06:44:28.971Z,97.50
2023-01-26T06:46:55.756Z,86.80
2023-01-26T06:49:22.532Z,84.18
2023-01-26T06:52:28.225Z,78.72
2023-01-26T06:54:58.980Z,85.38
2023-01-26T06:57:26.210Z,86.22
2023-01-26T06:59:52.984Z,94.38
2023-01-26T07:02:22.333Z,92.97
2023-01-26T07:04:50.434Z,98.90
2023-01-26T07:07:17.289Z,96.38
2023-01-26T07:09:44.101Z,83.88
2023-01-26T07:12:10.873Z,88.82
2023-01-26T07:14:37.709Z,90.72
2023-01-26T07:17:04.679Z,93.85
2023-01-26T07:19:33.181Z,93.65
2023-01-26T07:22:00.981Z,90.57
2023-01-26T07:24:28.169Z,90.53
2023-01-26T07:26:55.773Z,89.07
2023-01-26T07:29:22.785Z,86.00
2023-01-26T07:31:49.789Z,81.13
2023-01-26T07:34:16.612Z,86.00
2023-01-26T07:36:43.472Z,80.25
2023-01-26T07:39:10.324Z,80.85
2023-01-26T07:41:37.090Z,86.13
2023-01-26T07:44:07.733Z,83.60
2023-01-26T07:46:34.612Z,80.45
2023-01-26T07:49:01.383Z,74.50
2023-01-26T07:51:28.134Z,76.57
2023-01-26T07:53:54.898Z,74.60
2023-01-26T07:56:21.787Z,82.40
2023-01-26T07:58:53.384Z,80.40
2023-01-26T08:01:21.285Z,75.25
2023-01-26T08:03:51.477Z,62.90
2023-01-26T08:06:18.554Z,68.70
2023-01-26T08:08:50.973Z,71.70
2023-01-26T08:11:19.433Z,76.13
2023-01-26T08:13:46.280Z,74.97
2023-01-26T08:16:13.356Z,71.50
2023-01-26T08:18:46.161Z,72.97
2023-01-26T08:21:15.537Z,73.35
2023-01-26T08:23:42.701Z,73.88
2023-01-26T08:26:13.091Z,75.93
2023-01-26T08:28:40.677Z,61.60
2023-01-26T08:31:15.188Z,70.75
2023-01-26T08:33:42.835Z,69.35
2023-01-26T08:36:13.170Z,66.07
2023-01-26T08:38:40.028Z,80.47
2023-01-26T08:41:07.239Z,77.43
2023-01-26T08:43:34.741Z,77.05
2023-01-26T08:46:01.977Z,75.20
2023-01-26T08:48:31.064Z,74.03
2023-01-26T08:51:00.403Z,66.63
2023-01-26T08:53:30.498Z,82.47
2023-01-26T08:55:57.271Z,72.00
2023-01-26T08:58:24.106Z,77.85
2023-01-26T09:00:50.950Z,71.25
2023-01-26T09:03:17.982Z,67.55
2023-01-26T09:05:44.784Z,59.42
2023-01-26T09:08:13.912Z,66.00
2023-01-26T09:10:40.746Z,67.05
2023-01-26T09:13:07.589Z,66.40
2023-01-26T09:15:34.344Z,63.00
2023-01-26T09:18:01.991Z,67.60
2023-01-26T09:20:28.791Z,64.63
2023-01-26T09:22:55.569Z,66.18
2023-01-26T09:25:22.412Z,65.15
2023-01-26T09:27:49.154Z,72.85
2023-01-26T09:30:16.744Z,71.00
2023-01-26T09:32:43.764Z,69.82
2023-01-26T09:35:14.255Z,69.35
2023-01-26T09:37:43.879Z,74.97
2023-01-26T09:40:23.018Z,69.68
2023-01-26T09:43:25.503Z,69.35
2023-01-26T09:46:16.907Z,66.35
2023-01-26T09:48:57.181Z,65.75
2023-01-26T09:51:37.934Z,68.63
2023-01-26T09:54:28.416Z,61.70
2023-01-26T09:56:56.250Z,63.95
2023-01-26T09:59:44.430Z,62.25
2023-01-26T10:03:02.485Z,56.20
2023-01-26T10:06:01.380Z,52.38
2023-01-26T10:08:28.374Z,53.67
2023-01-26T10:11:02.603Z,60.38
2023-01-26T10:13:30.488Z,54.40
2023-01-26T10:16:03.005Z,59.13
2023-01-26T10:18:37.471Z,51.72
2023-01-26T10:21:07.480Z,53.92
2023-01-26T10:23:35.975Z,55.13
2023-01-26T10:26:16.634Z,55.22
2023-01-26T10:28:46.268Z,51.33
2023-01-26T10:31:17.614Z,46.45
2023-01-26T10:33:57.907Z,50.30
2023-01-26T10:36:25.367Z,47.25
2023-01-26T10:38:52.713Z,44.22
2023-01-26T10:41:26.546Z,47.97
2023-01-26T10:43:58.144Z,51.08
2023-01-26T10:46:45.245Z,49.50
2023-01-26T10:49:16.660Z,47.03
2023-01-26T10:51:47.102Z,49.40
2023-01-26T10:54:20.254Z,47.55
2023-01-26T10:57:17.492Z,49.03
2023-01-26T10:59:57.252Z,55.33
2023-01-26T11:02:30.575Z,47.95
2023-01-26T11:05:09.765Z,51.13
2023-01-26T11:07:43.070Z,44.10
2023-01-26T11:10:26.994Z,42.93
2023-01-26T11:13:21.344Z,49.97
2023-01-26T11:16:08.953Z,47.35
2023-01-26T11:18:42.793Z,46.13
2023-01-26T11:21:23.909Z,45.33
2023-01-26T11:24:08.521Z,49.47
2023-01-26T11:27:14.027Z,47.85
2023-01-26T11:30:24.141Z,49.25
2023-01-26T11:33:04.168Z,44.58
2023-01-26T11:35:54.333Z,45.67
2023-01-26T11:38:39.585Z,46.97
2023-01-26T11:41:13.872Z,46.67
2023-01-26T11:44:14.593Z,43.25
2023-01-26T11:47:36.611Z,44.95
2023-01-26T11:50:35.574Z,41.47
2023-01-26T11:53:34.047Z,45.28
2023-01-26T11:56:25.834Z,43.50
2023-01-26T11:59:06.632Z,42.67
2023-01-26T12:01:43.645Z,46.28
2023-01-26T12:04:20.228Z,48.67
2023-01-26T12:06:55.381Z,42.25
2023-01-26T12:09:46.811Z,43.50
2023-01-26T12:12:38.092Z,40.05
2023-01-26T12:15:13.798Z,42.33
2023-01-26T12:18:02.211Z,44.17
2023-01-26T12:20:50.911Z,44.60
2023-01-26T12:23:28.017Z,46.55
2023-01-26T12:26:20.675Z,41.50
2023-01-26T12:29:05.922Z,43.78
2023-01-26T12:31:44.675Z,43.00
2023-01-26T12:34:13.551Z,42.75
2023-01-26T12:37:21.211Z,39.47
2023-01-26T12:40:16.304Z,43.72
2023-01-26T12:42:58.588Z,47.15
2023-01-26T12:45:34.398Z,42.22
2023-01-26T12:48:24.281Z,43.65
2023-01-26T12:51:01.397Z,42.72
2023-01-26T12:53:39.999Z,44.70
2023-01-26T12:56:28.878Z,48.22
2023-01-26T12:58:58.564Z,40.28
2023-01-26T13:01:38.170Z,44.55
2023-01-26T13:04:13.108Z,42.97
2023-01-26T13:06:40.298Z,38.28
2023-01-26T13:09:23.476Z,44.90
2023-01-26T13:11:59.891Z,43.00
2023-01-26T13:14:39.934Z,42.30
2023-01-26T13:17:15.787Z,46.72
2023-01-26T13:19:42.455Z,44.67
2023-01-26T13:22:24.096Z,40.88
2023-01-26T13:24:57.171Z,40.83
2023-01-26T13:27:45.831Z,39.67
2023-01-26T13:30:31.112Z,38.80
2023-01-26T13:33:24.637Z,41.92
2023-01-26T13:35:54.518Z,39.00
2023-01-26T13:38:43.339Z,38.15
2023-01-26T13:41:19.258Z,37.30
2023-01-26T13:44:10.328Z,40.75
2023-01-26T13:46:45.773Z,34.85
2023-01-26T13:49:41.348Z,37.70
2023-01-26T13:52:26.521Z,38.45
2023-01-26T13:54:57.631Z,33.80
2023-01-26T13:57:27.974Z,34.10
2023-01-26T14:00:01.986Z,38.50
2023-01-26T14:02:34.960Z,34.00
2023-01-26T14:05:03.295Z,32.83
2023-01-26T14:07:41.852Z,36.30
2023-01-26T14:10:18.667Z,37.35
2023-01-26T14:12:58.684Z,34.13
2023-01-26T14:15:29.088Z,33.70
2023-01-26T14:18:05.150Z,32.92
2023-01-26T14:20:39.808Z,36.33
2023-01-26T14:23:14.958Z,34.63
2023-01-26T14:26:04.877Z,38.75
2023-01-26T14:28:37.001Z,34.95
2023-01-26T14:31:24.955Z,31.85
2023-01-26T14:33:58.674Z,36.78
2023-01-26T14:36:33.044Z,32.15
2023-01-26T14:39:01.066Z,32.30
2023-01-26T14:41:34.260Z,35.92
2023-01-26T14:44:06.028Z,32.23
2023-01-26T14:47:15.015Z,31.85
2023-01-26T14:49:49.431Z,29.33
2023-01-26T14:52:26.195Z,29.20
2023-01-26T14:54:56.677Z,36.33
2023-01-26T14:57:27.505Z,34.33
2023-01-26T14:59:57.493Z,31.65
2023-01-26T15:02:44.577Z,35.05
2023-01-26T15:05:24.287Z,30.75
2023-01-26T15:08:00.583Z,31.60
2023-01-26T15:10:41.080Z,28.85
2023-01-26T15:13:10.768Z,31.08
2023-01-26T15:15:41.093Z,30.40
2023-01-26T15:18:14.060Z,28.27
2023-01-26T15:21:15.287Z,33.83
2023-01-26T15:23:53.096Z,38.05
2023-01-26T15:26:31.184Z,35.45
2023-01-26T15:29:01.272Z,38.30
2023-01-26T15:31:41.688Z,35.95
2023-01-26T15:34:32.565Z,33.55
2023-01-26T15:37:00.334Z,34.75
2023-01-26T15:39:27.610Z,39.17
2023-01-26T15:42:16.263Z,40.28
2023-01-26T15:44:43.086Z,39.72
2023-01-26T15:47:11.962Z,43.97
2023-01-26T15:49:39.287Z,39.72
2023-01-26T15:52:20.516Z,41.03
2023-01-26T15:54:47.338Z,38.85
2023-01-26T15:57:14.303Z,43.33
2023-01-26T15:59:41.263Z,40.17
2023-01-26T16:02:15.687Z,40.85
2023-01-26T16:04:43.373Z,42.83
2023-01-26T16:07:19.230Z,43.72
2023-01-26T16:09:48.154Z,43.78
2023-01-26T16:12:31.565Z,45.85
2023-01-26T16:14:59.514Z,52.13
2023-01-26T16:17:26.492Z,52.30
2023-01-26T16:19:53.289Z,48.55
2023-01-26T16:22:20.267Z,46.95
2023-01-26T16:24:47.286Z,61.63
2023-01-26T16:27:14.060Z,53.95
2023-01-26T16:29:40.840Z,64.75
2023-01-26T16:32:28.919Z,49.08
2023-01-26T16:34:55.807Z,52.08
2023-01-26T16:37:22.671Z,62.15
2023-01-26T16:39:49.449Z,63.47
2023-01-26T16:42:21.086Z,57.08
2023-01-26T16:44:48.176Z,48.45
2023-01-26T16:47:15.045Z,51.80
2023-01-26T16:49:41.837Z,51.55
2023-01-26T16:52:09.853Z,46.08
2023-01-26T16:54:36.868Z,69.75
2023-01-26T16:57:03.852Z,46.42
2023-01-26T16:59:30.681Z,45.97
2023-01-26T17:01:57.643Z,49.60
2023-01-26T17:04:24.463Z,65.20
2023-01-26T17:06:51.306Z,47.75
2023-01-26T17:09:18.140Z,53.67
2023-01-26T17:11:44.915Z,57.17
2023-01-26T17:14:12.736Z,73.20
2023-01-26T17:16:45.459Z,62.22
2023-01-26T17:19:12.329Z,80.30
2023-01-26T17:21:39.095Z,57.75
2023-01-26T17:24:07.058Z,63.90
2023-01-26T17:26:33.890Z,51.22
2023-01-26T17:29:00.751Z,44.67
2023-01-26T17:31:28.551Z,64.68
2023-01-26T17:33:55.744Z,52.85
2023-01-26T17:36:22.570Z,53.90
2023-01-26T17:38:49.630Z,62.40
2023-01-26T17:41:21.143Z,66.85
2023-01-26T17:43:51.281Z,65.55
2023-01-26T17:46:20.262Z,75.95
2023-01-26T17:48:48.265Z,68.30
2023-01-26T17:51:19.301Z,59.53
2023-01-26T17:53:49.465Z,54.85
2023-01-26T17:56:19.363Z,51.28
2023-01-26T17:58:52.900Z,61.85
2023-01-26T18:01:25.056Z,41.03
2023-01-26T18:03:53.766Z,43.70
2023-01-26T18:06:21.317Z,44.47
2023-01-26T18:08:48.481Z,46.72
2023-01-26T18:11:16.874Z,39.25
2023-01-26T18:13:44.001Z,44.53
2023-01-26T18:16:15.851Z,40.78
2023-01-26T18:18:43.207Z,44.20
2023-01-26T18:21:23.655Z,37.88
2023-01-26T18:23:54.183Z,39.65
2023-01-26T18:26:24.184Z,37.17
2023-01-26T18:28:51.615Z,42.92
2023-01-26T18:31:22.259Z,40.13
2023-01-26T18:33:49.164Z,47.03
2023-01-26T18:36:19.722Z,43.53
2023-01-26T18:38:59.200Z,46.80
2023-01-26T18:41:27.819Z,43.17
2023-01-26T18:43:57.791Z,48.55
2023-01-26T18:46:26.106Z,44.42
2023-01-26T18:48:54.675Z,49.20
2023-01-26T18:51:22.590Z,56.95
2023-01-26T18:53:49.547Z,44.15
2023-01-26T18:56:17.174Z,52.78
2023-01-26T18:58:44.407Z,53.95
2023-01-26T19:01:14.786Z,47.75
2023-01-26T19:03:47.150Z,46.45
2023-01-26T19:06:19.689Z,40.72
2023-01-26T19:08:55.290Z,48.13
2023-01-26T19:11:22.082Z,45.00
2023-01-26T19:13:48.883Z,44.63
2023-01-26T19:16:15.691Z,48.20
2023-01-26T19:18:42.459Z,46.97
2023-01-26T19:21:09.996Z,43.17
2023-01-26T19:23:39.789Z,39.75
2023-01-26T19:26:15.297Z,39.22
2023-01-26T19:28:42.277Z,42.72
2023-01-26T19:31:10.315Z,46.25
2023-01-26T19:33:37.996Z,48.80
2023-01-26T19:36:06.862Z,45.08
2023-01-26T19:38:34.638Z,44.25
2023-01-26T19:41:02.406Z,38.80
2023-01-26T19:43:29.523Z,41.20
2023-01-26T19:45:57.149Z,37.58
2023-01-26T19:48:33.019Z,41.85
2023-01-26T19:51:21.824Z,45.50
2023-01-26T19:53:53.454Z,39.65
2023-01-26T19:56:29.691Z,39.95
2023-01-26T19:59:00.260Z,40.35
2023-01-26T20:01:28.884Z,47.13
2023-01-26T20:04:01.957Z,47.35
2023-01-26T20:06:31.828Z,42.33
2023-01-26T20:08:59.743Z,46.35
2023-01-26T20:11:29.367Z,49.15
2023-01-26T20:13:58.003Z,46.72
2023-01-26T20:16:27.776Z,44.83
2023-01-26T20:18:59.022Z,43.15
2023-01-26T20:21:27.098Z,41.40
2023-01-26T20:23:55.714Z,41.20
2023-01-26T20:26:25.536Z,42.00
2023-01-26T20:28:53.742Z,42.75
2023-01-26T20:31:24.428Z,44.67
2023-01-26T20:33:54.005Z,46.05
2023-01-26T20:36:25.750Z,41.30
2023-01-26T20:38:53.219Z,49.85
2023-01-26T20:41:25.220Z,44.38
2023-01-26T20:44:00.864Z,49.35
2023-01-26T20:46:38.539Z,46.35
2023-01-26T20:49:08.491Z,46.60
2023-01-26T20:51:38.049Z,46.03
2023-01-26T20:54:06.832Z,39.58
2023-01-26T20:56:33.869Z,47.20
2023-01-26T20:59:02.072Z,44.53
2023-01-26T21:01:28.999Z,50.35
2023-01-26T21:03:55.843Z,47.20
2023-01-26T21:06:24.088Z,45.58
2023-01-26T21:08:55.220Z,49.53
2023-01-26T21:11:24.939Z,49.80
2023-01-26T21:13:52.081Z,43.03
2023-01-26T21:16:19.818Z,48.80
2023-01-26T21:18:46.664Z,45.67
2023-01-26T21:21:17.768Z,43.78
2023-01-26T21:23:45.815Z,48.42
2023-01-26T21:26:16.163Z,51.22
2023-01-26T21:28:43.184Z,49.28
2023-01-26T21:31:14.936Z,46.20
2023-01-26T21:33:44.978Z,52.38
2023-01-26T21:36:15.427Z,43.40
2023-01-26T21:38:45.373Z,43.95
2023-01-26T21:41:35.065Z,47.67
2023-01-26T21:44:11.922Z,43.38
2023-01-26T21:46:38.743Z,47.15
2023-01-26T21:49:06.450Z,47.28
2023-01-26T21:51:52.237Z,45.13
2023-01-26T21:54:19.113Z,43.97
2023-01-26T21:56:46.003Z,45.15
2023-01-26T21:59:15.371Z,42.20
2023-01-26T22:01:49.572Z,48.40
2023-01-26T22:04:36.620Z,39.67
2023-01-26T22:07:03.414Z,44.15
2023-01-26T22:09:30.452Z,45.97
2023-01-26T22:11:57.223Z,38.45
2023-01-26T22:14:27.485Z,43.42
2023-01-26T22:16:54.292Z,47.42
2023-01-26T22:19:21.048Z,42.22
2023-01-26T22:21:47.989Z,40.63
2023-01-26T22:24:14.997Z,50.25
2023-01-26T22:26:41.884Z,44.05
2023-01-26T22:29:11.520Z,44.85
2023-01-26T22:31:38.330Z,46.28
2023-01-26T22:34:05.318Z,38.92
2023-01-26T22:36:33.229Z,45.35
2023-01-26T22:39:00.539Z,54.97
2023-01-26T22:41:30.326Z,41.20
2023-01-26T22:43:59.654Z,43.85
2023-01-26T22:46:29.174Z,42.75
2023-01-26T22:48:57.489Z,38.22
2023-01-26T22:51:30.343Z,40.35
2023-01-26T22:53:59.081Z,50.88
2023-01-26T22:56:27.108Z,39.17
2023-01-26T22:59:00.465Z,51.47
2023-01-26T23:01:30.118Z,44.75
2023-01-26T23:03:58.874Z,42.13
2023-01-26T23:06:26.503Z,55.25
2023-01-26T23:08:53.777Z,37.13
2023-01-26T23:11:27.552Z,42.42
2023-01-26T23:13:56.461Z,51.83
2023-01-26T23:16:24.330Z,44.75
2023-01-26T23:18:57.020Z,53.70
2023-01-26T23:21:25.661Z,44.47
2023-01-26T23:23:52.500Z,51.97
2023-01-26T23:26:20.407Z,49.60
2023-01-26T23:28:47.428Z,52.45
2023-01-26T23:31:17.916Z,53.15
2023-01-26T23:33:50.544Z,57.75
2023-01-26T23:36:17.332Z,50.65
2023-01-26T23:38:45.630Z,44.38
2023-01-26T23:41:12.740Z,50.53
2023-01-26T23:43:39.640Z,54.80
2023-01-26T23:46:07.753Z,53.65
2023-01-26T23:48:34.661Z,56.17
2023-01-26T23:51:09.545Z,57.40
2023-01-26T23:53:36.778Z,55.38
2023-01-26T23:56:09.269Z,56.88
2023-01-26T23:58:39.988Z,44.05
